sensor_id;sensor_type;location;lat;lon;timestamp;P1;durP1;ratioP1;P2;durP2;ratioP2
83018;SDS011;72834;40.104;18.336;2024-02-15T00:01:42;8.40;;;2.53;;
83018;SDS011;72834;40.104;18.336;2024-02-15T00:04:08;6.40;;;2.13;;
83018;SDS011;72834;40.104;18.336;2024-02-15T00:06:36;8.10;;;2.45;;
83018;SDS011;72834;40.104;18.336;2024-02-15T00:09:03;5.55;;;1.70;;
83018;SDS011;72834;40.104;18.336;2024-02-15T00:11:29;10.20;;;2.95;;
83018;SDS011;72834;40.104;18.336;2024-02-15T00:13:55;12.65;;;2.90;;
83018;SDS011;72834;40.104;18.336;2024-02-15T00:16:22;10.88;;;2.75;;
83018;SDS011;72834;40.104;18.336;2024-02-15T00:18:49;16.20;;;3.72;;
83018;SDS011;72834;40.104;18.336;2024-02-15T00:21:15;19.42;;;3.58;;
83018;SDS011;72834;40.104;18.336;2024-02-15T00:23:41;6.43;;;2.40;;
83018;SDS011;72834;40.104;18.336;2024-02-15T00:26:08;6.40;;;2.30;;
83018;SDS011;72834;40.104;18.336;2024-02-15T00:28:37;5.18;;;2.05;;
83018;SDS011;72834;40.104;18.336;2024-02-15T00:31:03;10.13;;;2.47;;
83018;SDS011;72834;40.104;18.336;2024-02-15T00:33:30;11.65;;;2.53;;
83018;SDS011;72834;40.104;18.336;2024-02-15T00:35:56;13.20;;;2.28;;
83018;SDS011;72834;40.104;18.336;2024-02-15T00:38:22;7.53;;;1.75;;
83018;SDS011;72834;40.104;18.336;2024-02-15T00:40:49;3.70;;;1.70;;
83018;SDS011;72834;40.104;18.336;2024-02-15T00:43:15;5.97;;;2.08;;
83018;SDS011;72834;40.104;18.336;2024-02-15T00:45:42;11.35;;;3.17;;
83018;SDS011;72834;40.104;18.336;2024-02-15T00:48:08;10.60;;;2.50;;
83018;SDS011;72834;40.104;18.336;2024-02-15T00:50:35;5.75;;;2.20;;
83018;SDS011;72834;40.104;18.336;2024-02-15T00:53:01;6.97;;;2.40;;
83018;SDS011;72834;40.104;18.336;2024-02-15T00:55:28;7.40;;;1.90;;
83018;SDS011;72834;40.104;18.336;2024-02-15T00:57:54;8.25;;;2.35;;
83018;SDS011;72834;40.104;18.336;2024-02-15T01:00:21;8.63;;;2.50;;
83018;SDS011;72834;40.104;18.336;2024-02-15T01:02:47;11.45;;;2.53;;
83018;SDS011;72834;40.104;18.336;2024-02-15T01:05:13;15.20;;;2.83;;
83018;SDS011;72834;40.104;18.336;2024-02-15T01:07:41;6.63;;;2.50;;
83018;SDS011;72834;40.104;18.336;2024-02-15T01:10:07;7.93;;;2.83;;
83018;SDS011;72834;40.104;18.336;2024-02-15T01:12:34;14.35;;;2.70;;
83018;SDS011;72834;40.104;18.336;2024-02-15T01:15:00;7.50;;;2.42;;
83018;SDS011;72834;40.104;18.336;2024-02-15T01:17:27;9.88;;;2.28;;
83018;SDS011;72834;40.104;18.336;2024-02-15T01:19:53;8.05;;;2.15;;
83018;SDS011;72834;40.104;18.336;2024-02-15T01:22:19;6.65;;;2.10;;
83018;SDS011;72834;40.104;18.336;2024-02-15T01:24:52;6.22;;;1.98;;
83018;SDS011;72834;40.104;18.336;2024-02-15T01:27:19;6.63;;;2.05;;
83018;SDS011;72834;40.104;18.336;2024-02-15T01:29:45;7.35;;;2.15;;
83018;SDS011;72834;40.104;18.336;2024-02-15T01:32:11;12.18;;;3.13;;
83018;SDS011;72834;40.104;18.336;2024-02-15T01:34:37;7.97;;;2.20;;
83018;SDS011;72834;40.104;18.336;2024-02-15T01:37:04;7.20;;;2.28;;
83018;SDS011;72834;40.104;18.336;2024-02-15T01:39:31;8.68;;;2.10;;
83018;SDS011;72834;40.104;18.336;2024-02-15T01:41:57;5.80;;;2.22;;
83018;SDS011;72834;40.104;18.336;2024-02-15T01:44:24;6.28;;;2.20;;
83018;SDS011;72834;40.104;18.336;2024-02-15T01:46:50;8.63;;;2.38;;
83018;SDS011;72834;40.104;18.336;2024-02-15T01:49:21;8.50;;;2.25;;
83018;SDS011;72834;40.104;18.336;2024-02-15T01:51:49;9.60;;;2.40;;
83018;SDS011;72834;40.104;18.336;2024-02-15T01:54:17;7.22;;;2.53;;
83018;SDS011;72834;40.104;18.336;2024-02-15T01:56:45;6.20;;;2.50;;
83018;SDS011;72834;40.104;18.336;2024-02-15T01:59:12;6.38;;;2.53;;
83018;SDS011;72834;40.104;18.336;2024-02-15T02:01:42;12.63;;;3.20;;
83018;SDS011;72834;40.104;18.336;2024-02-15T02:04:10;6.45;;;2.17;;
83018;SDS011;72834;40.104;18.336;2024-02-15T02:06:39;6.07;;;1.65;;
83018;SDS011;72834;40.104;18.336;2024-02-15T02:09:07;12.48;;;2.38;;
83018;SDS011;72834;40.104;18.336;2024-02-15T02:11:38;7.40;;;1.92;;
83018;SDS011;72834;40.104;18.336;2024-02-15T02:14:04;3.95;;;1.63;;
83018;SDS011;72834;40.104;18.336;2024-02-15T02:16:31;4.50;;;1.75;;
83018;SDS011;72834;40.104;18.336;2024-02-15T02:18:58;6.35;;;3.25;;
83018;SDS011;72834;40.104;18.336;2024-02-15T02:21:25;12.15;;;3.17;;
83018;SDS011;72834;40.104;18.336;2024-02-15T02:23:53;6.75;;;2.72;;
83018;SDS011;72834;40.104;18.336;2024-02-15T02:26:22;6.95;;;2.70;;
83018;SDS011;72834;40.104;18.336;2024-02-15T02:28:50;5.80;;;1.88;;
83018;SDS011;72834;40.104;18.336;2024-02-15T02:31:20;10.05;;;2.65;;
83018;SDS011;72834;40.104;18.336;2024-02-15T02:33:51;6.20;;;2.17;;
83018;SDS011;72834;40.104;18.336;2024-02-15T02:36:19;7.00;;;2.13;;
83018;SDS011;72834;40.104;18.336;2024-02-15T02:38:45;4.28;;;2.05;;
83018;SDS011;72834;40.104;18.336;2024-02-15T02:41:15;6.75;;;1.85;;
83018;SDS011;72834;40.104;18.336;2024-02-15T02:43:45;7.05;;;2.17;;
83018;SDS011;72834;40.104;18.336;2024-02-15T02:46:11;7.85;;;3.00;;
83018;SDS011;72834;40.104;18.336;2024-02-15T02:48:38;7.60;;;2.00;;
83018;SDS011;72834;40.104;18.336;2024-02-15T02:51:05;8.73;;;2.38;;
83018;SDS011;72834;40.104;18.336;2024-02-15T02:53:32;3.58;;;1.80;;
83018;SDS011;72834;40.104;18.336;2024-02-15T02:55:58;7.32;;;2.97;;
83018;SDS011;72834;40.104;18.336;2024-02-15T02:58:25;5.25;;;2.45;;
83018;SDS011;72834;40.104;18.336;2024-02-15T03:00:51;7.65;;;2.95;;
83018;SDS011;72834;40.104;18.336;2024-02-15T03:03:18;9.75;;;2.13;;
83018;SDS011;72834;40.104;18.336;2024-02-15T03:05:44;5.63;;;2.25;;
83018;SDS011;72834;40.104;18.336;2024-02-15T03:08:11;8.98;;;2.40;;
83018;SDS011;72834;40.104;18.336;2024-02-15T03:10:43;6.40;;;1.95;;
83018;SDS011;72834;40.104;18.336;2024-02-15T03:13:10;4.93;;;1.90;;
83018;SDS011;72834;40.104;18.336;2024-02-15T03:15:37;6.38;;;2.15;;
83018;SDS011;72834;40.104;18.336;2024-02-15T03:18:04;5.65;;;2.25;;
83018;SDS011;72834;40.104;18.336;2024-02-15T03:20:33;9.23;;;2.72;;
83018;SDS011;72834;40.104;18.336;2024-02-15T03:23:02;6.93;;;2.10;;
83018;SDS011;72834;40.104;18.336;2024-02-15T03:25:29;5.82;;;2.10;;
83018;SDS011;72834;40.104;18.336;2024-02-15T03:27:56;6.43;;;2.40;;
83018;SDS011;72834;40.104;18.336;2024-02-15T03:30:26;6.80;;;2.35;;
83018;SDS011;72834;40.104;18.336;2024-02-15T03:32:57;9.30;;;2.35;;
83018;SDS011;72834;40.104;18.336;2024-02-15T03:35:24;6.82;;;2.05;;
83018;SDS011;72834;40.104;18.336;2024-02-15T03:37:57;10.15;;;2.83;;
83018;SDS011;72834;40.104;18.336;2024-02-15T03:40:24;8.57;;;2.30;;
83018;SDS011;72834;40.104;18.336;2024-02-15T03:42:56;7.47;;;2.67;;
83018;SDS011;72834;40.104;18.336;2024-02-15T03:45:22;6.07;;;2.45;;
83018;SDS011;72834;40.104;18.336;2024-02-15T03:47:52;8.35;;;2.50;;
83018;SDS011;72834;40.104;18.336;2024-02-15T03:50:18;6.07;;;2.72;;
83018;SDS011;72834;40.104;18.336;2024-02-15T03:52:47;11.30;;;3.30;;
83018;SDS011;72834;40.104;18.336;2024-02-15T03:55:14;8.15;;;2.75;;
83018;SDS011;72834;40.104;18.336;2024-02-15T03:57:41;9.50;;;2.65;;
83018;SDS011;72834;40.104;18.336;2024-02-15T04:00:09;9.40;;;2.67;;
83018;SDS011;72834;40.104;18.336;2024-02-15T04:02:36;5.40;;;2.83;;
83018;SDS011;72834;40.104;18.336;2024-02-15T04:05:05;5.38;;;2.55;;
83018;SDS011;72834;40.104;18.336;2024-02-15T04:07:34;9.45;;;2.22;;
83018;SDS011;72834;40.104;18.336;2024-02-15T04:10:00;4.50;;;2.50;;
83018;SDS011;72834;40.104;18.336;2024-02-15T04:12:28;5.78;;;2.58;;
83018;SDS011;72834;40.104;18.336;2024-02-15T04:14:54;6.60;;;2.40;;
83018;SDS011;72834;40.104;18.336;2024-02-15T04:17:25;7.03;;;2.38;;
83018;SDS011;72834;40.104;18.336;2024-02-15T04:19:51;9.25;;;2.53;;
83018;SDS011;72834;40.104;18.336;2024-02-15T04:22:19;6.78;;;2.03;;
83018;SDS011;72834;40.104;18.336;2024-02-15T04:24:46;4.90;;;1.70;;
83018;SDS011;72834;40.104;18.336;2024-02-15T04:27:12;7.13;;;2.47;;
83018;SDS011;72834;40.104;18.336;2024-02-15T04:29:43;4.90;;;2.35;;
83018;SDS011;72834;40.104;18.336;2024-02-15T04:32:10;8.30;;;2.38;;
83018;SDS011;72834;40.104;18.336;2024-02-15T04:34:37;8.32;;;2.67;;
83018;SDS011;72834;40.104;18.336;2024-02-15T04:37:04;7.28;;;2.70;;
83018;SDS011;72834;40.104;18.336;2024-02-15T04:39:34;6.57;;;2.72;;
83018;SDS011;72834;40.104;18.336;2024-02-15T04:42:01;10.30;;;2.35;;
83018;SDS011;72834;40.104;18.336;2024-02-15T04:44:38;8.90;;;2.53;;
83018;SDS011;72834;40.104;18.336;2024-02-15T04:47:05;7.35;;;2.08;;
83018;SDS011;72834;40.104;18.336;2024-02-15T04:49:34;6.25;;;2.17;;
83018;SDS011;72834;40.104;18.336;2024-02-15T04:52:04;11.38;;;2.17;;
83018;SDS011;72834;40.104;18.336;2024-02-15T04:54:32;6.45;;;2.10;;
83018;SDS011;72834;40.104;18.336;2024-02-15T04:56:58;4.88;;;2.30;;
83018;SDS011;72834;40.104;18.336;2024-02-15T04:59:26;5.25;;;2.10;;
83018;SDS011;72834;40.104;18.336;2024-02-15T05:01:54;7.55;;;2.15;;
83018;SDS011;72834;40.104;18.336;2024-02-15T05:04:24;5.13;;;2.33;;
83018;SDS011;72834;40.104;18.336;2024-02-15T05:06:51;5.03;;;1.80;;
83018;SDS011;72834;40.104;18.336;2024-02-15T05:09:18;7.75;;;2.33;;
83018;SDS011;72834;40.104;18.336;2024-02-15T05:11:44;6.75;;;2.72;;
83018;SDS011;72834;40.104;18.336;2024-02-15T05:14:14;5.68;;;2.38;;
83018;SDS011;72834;40.104;18.336;2024-02-15T05:16:49;5.10;;;2.05;;
83018;SDS011;72834;40.104;18.336;2024-02-15T05:19:16;5.68;;;2.45;;
83018;SDS011;72834;40.104;18.336;2024-02-15T05:21:45;4.65;;;2.15;;
83018;SDS011;72834;40.104;18.336;2024-02-15T05:24:15;5.80;;;1.63;;
83018;SDS011;72834;40.104;18.336;2024-02-15T05:26:45;8.38;;;2.47;;
83018;SDS011;72834;40.104;18.336;2024-02-15T05:29:15;7.03;;;2.20;;
83018;SDS011;72834;40.104;18.336;2024-02-15T05:31:42;6.68;;;2.42;;
83018;SDS011;72834;40.104;18.336;2024-02-15T05:34:09;5.90;;;2.42;;
83018;SDS011;72834;40.104;18.336;2024-02-15T05:36:37;11.02;;;2.63;;
83018;SDS011;72834;40.104;18.336;2024-02-15T05:39:04;9.10;;;3.00;;
83018;SDS011;72834;40.104;18.336;2024-02-15T05:41:31;5.43;;;1.73;;
83018;SDS011;72834;40.104;18.336;2024-02-15T05:44:00;6.90;;;2.35;;
83018;SDS011;72834;40.104;18.336;2024-02-15T05:46:27;8.68;;;3.10;;
83018;SDS011;72834;40.104;18.336;2024-02-15T05:48:53;8.32;;;2.55;;
83018;SDS011;72834;40.104;18.336;2024-02-15T05:51:20;6.45;;;2.47;;
83018;SDS011;72834;40.104;18.336;2024-02-15T05:53:47;9.07;;;2.80;;
83018;SDS011;72834;40.104;18.336;2024-02-15T05:56:15;7.22;;;2.92;;
83018;SDS011;72834;40.104;18.336;2024-02-15T05:58:42;5.60;;;2.30;;
83018;SDS011;72834;40.104;18.336;2024-02-15T06:01:09;6.82;;;2.80;;
83018;SDS011;72834;40.104;18.336;2024-02-15T06:03:38;9.73;;;2.38;;
83018;SDS011;72834;40.104;18.336;2024-02-15T06:06:06;5.88;;;2.42;;
83018;SDS011;72834;40.104;18.336;2024-02-15T06:08:33;6.75;;;2.53;;
83018;SDS011;72834;40.104;18.336;2024-02-15T06:11:00;7.70;;;3.22;;
83018;SDS011;72834;40.104;18.336;2024-02-15T06:13:28;10.60;;;3.08;;
83018;SDS011;72834;40.104;18.336;2024-02-15T06:15:54;5.05;;;2.50;;
83018;SDS011;72834;40.104;18.336;2024-02-15T06:18:21;11.55;;;3.95;;
83018;SDS011;72834;40.104;18.336;2024-02-15T06:20:50;10.07;;;3.13;;
83018;SDS011;72834;40.104;18.336;2024-02-15T06:23:17;9.20;;;3.22;;
83018;SDS011;72834;40.104;18.336;2024-02-15T06:25:44;8.93;;;3.78;;
83018;SDS011;72834;40.104;18.336;2024-02-15T06:28:13;6.95;;;3.15;;
83018;SDS011;72834;40.104;18.336;2024-02-15T06:30:59;7.20;;;3.35;;
83018;SDS011;72834;40.104;18.336;2024-02-15T06:33:44;10.10;;;4.97;;
83018;SDS011;72834;40.104;18.336;2024-02-15T06:36:28;14.63;;;4.63;;
83018;SDS011;72834;40.104;18.336;2024-02-15T06:39:13;12.55;;;3.85;;
83018;SDS011;72834;40.104;18.336;2024-02-15T06:41:57;8.63;;;3.58;;
83018;SDS011;72834;40.104;18.336;2024-02-15T06:44:24;11.32;;;3.42;;
83018;SDS011;72834;40.104;18.336;2024-02-15T06:46:50;6.47;;;3.47;;
83018;SDS011;72834;40.104;18.336;2024-02-15T06:49:17;8.93;;;3.35;;
83018;SDS011;72834;40.104;18.336;2024-02-15T06:51:43;10.45;;;3.53;;
83018;SDS011;72834;40.104;18.336;2024-02-15T06:54:10;9.07;;;3.50;;
83018;SDS011;72834;40.104;18.336;2024-02-15T06:56:36;8.95;;;3.40;;
83018;SDS011;72834;40.104;18.336;2024-02-15T06:59:06;7.10;;;3.03;;
83018;SDS011;72834;40.104;18.336;2024-02-15T07:01:34;8.98;;;3.65;;
83018;SDS011;72834;40.104;18.336;2024-02-15T07:04:00;7.82;;;3.42;;
83018;SDS011;72834;40.104;18.336;2024-02-15T07:06:28;7.20;;;2.60;;
83018;SDS011;72834;40.104;18.336;2024-02-15T07:08:57;6.20;;;2.80;;
83018;SDS011;72834;40.104;18.336;2024-02-15T07:11:23;5.00;;;1.80;;
83018;SDS011;72834;40.104;18.336;2024-02-15T07:13:49;5.75;;;2.45;;
83018;SDS011;72834;40.104;18.336;2024-02-15T07:16:18;8.38;;;2.38;;
83018;SDS011;72834;40.104;18.336;2024-02-15T07:18:45;5.05;;;2.30;;
83018;SDS011;72834;40.104;18.336;2024-02-15T07:21:11;5.75;;;2.47;;
83018;SDS011;72834;40.104;18.336;2024-02-15T07:23:39;5.90;;;2.10;;
83018;SDS011;72834;40.104;18.336;2024-02-15T07:26:07;4.93;;;2.40;;
83018;SDS011;72834;40.104;18.336;2024-02-15T07:28:33;6.72;;;2.50;;
83018;SDS011;72834;40.104;18.336;2024-02-15T07:31:00;5.32;;;2.40;;
83018;SDS011;72834;40.104;18.336;2024-02-15T07:33:28;5.32;;;2.60;;
83018;SDS011;72834;40.104;18.336;2024-02-15T07:35:54;7.00;;;2.05;;
83018;SDS011;72834;40.104;18.336;2024-02-15T07:38:22;5.47;;;2.17;;
83018;SDS011;72834;40.104;18.336;2024-02-15T07:40:49;5.07;;;2.22;;
83018;SDS011;72834;40.104;18.336;2024-02-15T07:43:15;7.93;;;2.45;;
83018;SDS011;72834;40.104;18.336;2024-02-15T07:45:42;4.03;;;1.80;;
83018;SDS011;72834;40.104;18.336;2024-02-15T07:48:08;5.45;;;1.85;;
83018;SDS011;72834;40.104;18.336;2024-02-15T07:50:34;5.90;;;2.45;;
83018;SDS011;72834;40.104;18.336;2024-02-15T07:53:03;3.13;;;1.60;;
83018;SDS011;72834;40.104;18.336;2024-02-15T07:55:32;6.13;;;2.15;;
83018;SDS011;72834;40.104;18.336;2024-02-15T07:57:59;5.10;;;1.60;;
83018;SDS011;72834;40.104;18.336;2024-02-15T08:00:27;6.00;;;1.80;;
83018;SDS011;72834;40.104;18.336;2024-02-15T08:02:53;4.47;;;1.55;;
83018;SDS011;72834;40.104;18.336;2024-02-15T08:05:20;4.43;;;1.67;;
83018;SDS011;72834;40.104;18.336;2024-02-15T08:07:46;4.30;;;2.20;;
83018;SDS011;72834;40.104;18.336;2024-02-15T08:10:13;5.13;;;1.63;;
83018;SDS011;72834;40.104;18.336;2024-02-15T08:12:42;3.08;;;1.42;;
83018;SDS011;72834;40.104;18.336;2024-02-15T08:15:10;2.97;;;1.17;;
83018;SDS011;72834;40.104;18.336;2024-02-15T08:17:41;5.90;;;1.65;;
83018;SDS011;72834;40.104;18.336;2024-02-15T08:20:11;2.13;;;0.90;;
83018;SDS011;72834;40.104;18.336;2024-02-15T08:22:39;6.03;;;1.48;;
83018;SDS011;72834;40.104;18.336;2024-02-15T08:25:07;3.80;;;1.45;;
83018;SDS011;72834;40.104;18.336;2024-02-15T08:27:40;5.38;;;1.55;;
83018;SDS011;72834;40.104;18.336;2024-02-15T08:30:11;2.65;;;1.20;;
83018;SDS011;72834;40.104;18.336;2024-02-15T08:32:42;2.72;;;1.30;;
83018;SDS011;72834;40.104;18.336;2024-02-15T08:35:11;0.73;;;0.60;;
83018;SDS011;72834;40.104;18.336;2024-02-15T08:37:41;4.32;;;1.25;;
83018;SDS011;72834;40.104;18.336;2024-02-15T08:40:09;1.95;;;1.25;;
83018;SDS011;72834;40.104;18.336;2024-02-15T08:42:40;1.00;;;0.68;;
83018;SDS011;72834;40.104;18.336;2024-02-15T08:45:07;2.60;;;0.73;;
83018;SDS011;72834;40.104;18.336;2024-02-15T08:47:38;2.38;;;1.10;;
83018;SDS011;72834;40.104;18.336;2024-02-15T08:50:06;2.35;;;1.20;;
83018;SDS011;72834;40.104;18.336;2024-02-15T08:52:38;2.72;;;1.17;;
83018;SDS011;72834;40.104;18.336;2024-02-15T08:55:05;4.45;;;1.52;;
83018;SDS011;72834;40.104;18.336;2024-02-15T08:57:35;4.53;;;1.15;;
83018;SDS011;72834;40.104;18.336;2024-02-15T09:00:02;4.10;;;1.33;;
83018;SDS011;72834;40.104;18.336;2024-02-15T09:02:47;2.55;;;1.13;;
83018;SDS011;72834;40.104;18.336;2024-02-15T09:05:14;3.25;;;1.25;;
83018;SDS011;72834;40.104;18.336;2024-02-15T09:07:45;5.70;;;1.50;;
83018;SDS011;72834;40.104;18.336;2024-02-15T09:10:16;5.78;;;1.45;;
83018;SDS011;72834;40.104;18.336;2024-02-15T09:12:44;2.20;;;0.93;;
83018;SDS011;72834;40.104;18.336;2024-02-15T09:15:12;2.05;;;1.15;;
83018;SDS011;72834;40.104;18.336;2024-02-15T09:17:42;0.70;;;0.70;;
83018;SDS011;72834;40.104;18.336;2024-02-15T09:20:11;4.47;;;1.50;;
83018;SDS011;72834;40.104;18.336;2024-02-15T09:22:42;2.55;;;1.30;;
83018;SDS011;72834;40.104;18.336;2024-02-15T09:25:12;2.60;;;0.93;;
83018;SDS011;72834;40.104;18.336;2024-02-15T09:27:39;1.98;;;0.95;;
83018;SDS011;72834;40.104;18.336;2024-02-15T09:30:06;2.50;;;1.25;;
83018;SDS011;72834;40.104;18.336;2024-02-15T09:32:35;2.85;;;1.55;;
83018;SDS011;72834;40.104;18.336;2024-02-15T09:35:02;2.47;;;1.15;;
83018;SDS011;72834;40.104;18.336;2024-02-15T09:37:33;3.80;;;1.00;;
83018;SDS011;72834;40.104;18.336;2024-02-15T09:40:00;3.25;;;1.13;;
83018;SDS011;72834;40.104;18.336;2024-02-15T09:42:32;3.15;;;1.67;;
83018;SDS011;72834;40.104;18.336;2024-02-15T09:45:00;5.50;;;1.50;;
83018;SDS011;72834;40.104;18.336;2024-02-15T09:47:36;2.47;;;1.13;;
83018;SDS011;72834;40.104;18.336;2024-02-15T09:50:10;3.40;;;1.50;;
83018;SDS011;72834;40.104;18.336;2024-02-15T09:52:45;2.33;;;1.27;;
83018;SDS011;72834;40.104;18.336;2024-02-15T09:55:17;6.95;;;1.27;;
83018;SDS011;72834;40.104;18.336;2024-02-15T09:57:44;5.10;;;1.33;;
83018;SDS011;72834;40.104;18.336;2024-02-15T10:00:12;5.60;;;1.63;;
83018;SDS011;72834;40.104;18.336;2024-02-15T10:02:50;2.33;;;1.05;;
83018;SDS011;72834;40.104;18.336;2024-02-15T10:05:21;2.15;;;1.20;;
83018;SDS011;72834;40.104;18.336;2024-02-15T10:07:48;4.43;;;1.90;;
83018;SDS011;72834;40.104;18.336;2024-02-15T10:10:18;4.65;;;1.85;;
83018;SDS011;72834;40.104;18.336;2024-02-15T10:12:49;0.88;;;0.63;;
83018;SDS011;72834;40.104;18.336;2024-02-15T10:15:36;4.20;;;1.50;;
83018;SDS011;72834;40.104;18.336;2024-02-15T10:18:05;3.75;;;1.60;;
83018;SDS011;72834;40.104;18.336;2024-02-15T10:20:37;5.30;;;1.60;;
83018;SDS011;72834;40.104;18.336;2024-02-15T10:25:34;5.13;;;1.92;;
83018;SDS011;72834;40.104;18.336;2024-02-15T10:28:14;1.63;;;0.60;;
83018;SDS011;72834;40.104;18.336;2024-02-15T10:30:48;5.55;;;1.35;;
83018;SDS011;72834;40.104;18.336;2024-02-15T10:33:18;1.50;;;0.65;;
83018;SDS011;72834;40.104;18.336;2024-02-15T10:35:56;2.90;;;1.40;;
83018;SDS011;72834;40.104;18.336;2024-02-15T10:38:34;4.85;;;1.25;;
83018;SDS011;72834;40.104;18.336;2024-02-15T10:41:05;1.67;;;1.02;;
83018;SDS011;72834;40.104;18.336;2024-02-15T10:43:35;2.92;;;1.67;;
83018;SDS011;72834;40.104;18.336;2024-02-15T10:46:04;3.28;;;1.42;;
83018;SDS011;72834;40.104;18.336;2024-02-15T10:48:35;2.97;;;1.35;;
83018;SDS011;72834;40.104;18.336;2024-02-15T10:51:03;3.65;;;1.50;;
83018;SDS011;72834;40.104;18.336;2024-02-15T10:53:35;7.40;;;2.50;;
83018;SDS011;72834;40.104;18.336;2024-02-15T10:59:07;7.32;;;2.50;;
83018;SDS011;72834;40.104;18.336;2024-02-15T11:01:45;5.45;;;2.00;;
83018;SDS011;72834;40.104;18.336;2024-02-15T11:04:16;5.05;;;1.45;;
83018;SDS011;72834;40.104;18.336;2024-02-15T11:06:50;4.07;;;1.65;;
83018;SDS011;72834;40.104;18.336;2024-02-15T11:09:21;4.07;;;1.70;;
83018;SDS011;72834;40.104;18.336;2024-02-15T11:11:48;3.22;;;1.50;;
83018;SDS011;72834;40.104;18.336;2024-02-15T11:14:28;3.38;;;1.58;;
83018;SDS011;72834;40.104;18.336;2024-02-15T11:16:58;4.07;;;1.60;;
83018;SDS011;72834;40.104;18.336;2024-02-15T11:22:09;4.65;;;1.67;;
83018;SDS011;72834;40.104;18.336;2024-02-15T11:24:37;2.72;;;1.20;;
83018;SDS011;72834;40.104;18.336;2024-02-15T11:27:27;4.95;;;1.67;;
83018;SDS011;72834;40.104;18.336;2024-02-15T11:29:55;3.28;;;1.40;;
83018;SDS011;72834;40.104;18.336;2024-02-15T11:32:35;4.03;;;1.77;;
83018;SDS011;72834;40.104;18.336;2024-02-15T11:37:51;4.43;;;1.88;;
83018;SDS011;72834;40.104;18.336;2024-02-15T11:42:56;4.63;;;1.95;;
83018;SDS011;72834;40.104;18.336;2024-02-15T11:45:26;3.90;;;1.60;;
83018;SDS011;72834;40.104;18.336;2024-02-15T11:48:03;5.35;;;1.52;;
83018;SDS011;72834;40.104;18.336;2024-02-15T11:50:36;4.82;;;1.83;;
83018;SDS011;72834;40.104;18.336;2024-02-15T11:53:08;3.20;;;1.25;;
83018;SDS011;72834;40.104;18.336;2024-02-15T11:55:35;2.92;;;1.10;;
83018;SDS011;72834;40.104;18.336;2024-02-15T11:58:07;1.63;;;1.00;;
83018;SDS011;72834;40.104;18.336;2024-02-15T12:00:34;2.05;;;1.15;;
83018;SDS011;72834;40.104;18.336;2024-02-15T12:03:20;2.80;;;1.40;;
83018;SDS011;72834;40.104;18.336;2024-02-15T12:06:06;4.15;;;1.30;;
83018;SDS011;72834;40.104;18.336;2024-02-15T12:08:52;3.97;;;1.30;;
83018;SDS011;72834;40.104;18.336;2024-02-15T12:11:39;6.60;;;1.58;;
83018;SDS011;72834;40.104;18.336;2024-02-15T12:14:24;3.72;;;1.50;;
83018;SDS011;72834;40.104;18.336;2024-02-15T12:17:11;2.95;;;1.05;;
83018;SDS011;72834;40.104;18.336;2024-02-15T12:19:59;1.27;;;1.13;;
83018;SDS011;72834;40.104;18.336;2024-02-15T12:22:33;3.80;;;1.50;;
83018;SDS011;72834;40.104;18.336;2024-02-15T12:25:06;3.88;;;1.08;;
83018;SDS011;72834;40.104;18.336;2024-02-15T12:27:43;4.45;;;1.77;;
83018;SDS011;72834;40.104;18.336;2024-02-15T12:30:16;3.50;;;1.33;;
83018;SDS011;72834;40.104;18.336;2024-02-15T12:32:47;1.77;;;0.75;;
83018;SDS011;72834;40.104;18.336;2024-02-15T12:35:16;4.90;;;1.40;;
83018;SDS011;72834;40.104;18.336;2024-02-15T12:40:38;4.32;;;1.45;;
83018;SDS011;72834;40.104;18.336;2024-02-15T12:43:06;3.50;;;1.50;;
83018;SDS011;72834;40.104;18.336;2024-02-15T12:45:38;3.38;;;1.13;;
83018;SDS011;72834;40.104;18.336;2024-02-15T12:48:07;3.80;;;1.15;;
83018;SDS011;72834;40.104;18.336;2024-02-15T12:50:34;1.77;;;1.00;;
83018;SDS011;72834;40.104;18.336;2024-02-15T12:53:01;3.45;;;1.08;;
83018;SDS011;72834;40.104;18.336;2024-02-15T12:55:35;3.15;;;1.25;;
83018;SDS011;72834;40.104;18.336;2024-02-15T13:00:34;3.17;;;1.40;;
83018;SDS011;72834;40.104;18.336;2024-02-15T13:03:04;2.13;;;1.10;;
83018;SDS011;72834;40.104;18.336;2024-02-15T13:05:34;3.38;;;1.13;;
83018;SDS011;72834;40.104;18.336;2024-02-15T13:08:04;6.20;;;1.92;;
83018;SDS011;72834;40.104;18.336;2024-02-15T13:10:35;1.38;;;0.82;;
83018;SDS011;72834;40.104;18.336;2024-02-15T13:13:02;1.58;;;0.80;;
83018;SDS011;72834;40.104;18.336;2024-02-15T13:15:28;2.70;;;1.10;;
83018;SDS011;72834;40.104;18.336;2024-02-15T13:18:03;3.63;;;1.33;;
83018;SDS011;72834;40.104;18.336;2024-02-15T13:20:30;2.15;;;1.05;;
83018;SDS011;72834;40.104;18.336;2024-02-15T13:23:01;3.20;;;0.98;;
83018;SDS011;72834;40.104;18.336;2024-02-15T13:25:34;2.83;;;1.15;;
83018;SDS011;72834;40.104;18.336;2024-02-15T13:28:11;4.20;;;1.63;;
83018;SDS011;72834;40.104;18.336;2024-02-15T13:30:38;2.72;;;1.02;;
83018;SDS011;72834;40.104;18.336;2024-02-15T13:33:06;4.88;;;1.73;;
83018;SDS011;72834;40.104;18.336;2024-02-15T13:35:33;3.33;;;1.15;;
83018;SDS011;72834;40.104;18.336;2024-02-15T13:38:00;2.25;;;1.00;;
83018;SDS011;72834;40.104;18.336;2024-02-15T13:40:26;1.75;;;0.80;;
83018;SDS011;72834;40.104;18.336;2024-02-15T13:42:56;3.65;;;1.20;;
83018;SDS011;72834;40.104;18.336;2024-02-15T13:45:45;3.03;;;1.10;;
83018;SDS011;72834;40.104;18.336;2024-02-15T13:48:10;5.15;;;1.10;;
83018;SDS011;72834;40.104;18.336;2024-02-15T13:50:40;2.95;;;1.52;;
83018;SDS011;72834;40.104;18.336;2024-02-15T13:53:06;3.65;;;1.58;;
83018;SDS011;72834;40.104;18.336;2024-02-15T13:55:34;3.90;;;1.42;;
83018;SDS011;72834;40.104;18.336;2024-02-15T13:58:02;4.28;;;1.48;;
83018;SDS011;72834;40.104;18.336;2024-02-15T14:00:29;5.70;;;1.63;;
83018;SDS011;72834;40.104;18.336;2024-02-15T14:02:56;3.53;;;1.40;;
83018;SDS011;72834;40.104;18.336;2024-02-15T14:05:24;7.00;;;1.30;;
83018;SDS011;72834;40.104;18.336;2024-02-15T14:07:58;3.17;;;0.85;;
83018;SDS011;72834;40.104;18.336;2024-02-15T14:10:27;5.93;;;1.08;;
83018;SDS011;72834;40.104;18.336;2024-02-15T14:12:54;2.28;;;1.10;;
83018;SDS011;72834;40.104;18.336;2024-02-15T14:15:21;3.75;;;1.38;;
83018;SDS011;72834;40.104;18.336;2024-02-15T14:17:47;2.50;;;1.25;;
83018;SDS011;72834;40.104;18.336;2024-02-15T14:20:14;3.85;;;1.80;;
83018;SDS011;72834;40.104;18.336;2024-02-15T14:22:41;4.72;;;1.38;;
83018;SDS011;72834;40.104;18.336;2024-02-15T14:25:15;4.20;;;1.75;;
83018;SDS011;72834;40.104;18.336;2024-02-15T14:27:42;3.30;;;1.60;;
83018;SDS011;72834;40.104;18.336;2024-02-15T14:30:08;5.28;;;1.33;;
83018;SDS011;72834;40.104;18.336;2024-02-15T14:32:54;2.95;;;1.38;;
83018;SDS011;72834;40.104;18.336;2024-02-15T14:37:55;3.85;;;1.88;;
83018;SDS011;72834;40.104;18.336;2024-02-15T14:40:23;5.80;;;1.95;;
83018;SDS011;72834;40.104;18.336;2024-02-15T14:42:50;4.20;;;2.10;;
83018;SDS011;72834;40.104;18.336;2024-02-15T14:45:16;2.45;;;1.10;;
83018;SDS011;72834;40.104;18.336;2024-02-15T14:47:42;4.22;;;1.30;;
83018;SDS011;72834;40.104;18.336;2024-02-15T14:50:08;3.15;;;1.33;;
83018;SDS011;72834;40.104;18.336;2024-02-15T14:52:35;2.55;;;1.30;;
83018;SDS011;72834;40.104;18.336;2024-02-15T14:55:05;4.15;;;1.80;;
83018;SDS011;72834;40.104;18.336;2024-02-15T14:57:36;7.15;;;1.77;;
83018;SDS011;72834;40.104;18.336;2024-02-15T15:00:06;3.53;;;1.25;;
83018;SDS011;72834;40.104;18.336;2024-02-15T15:02:38;9.07;;;1.90;;
83018;SDS011;72834;40.104;18.336;2024-02-15T15:05:04;6.13;;;2.22;;
83018;SDS011;72834;40.104;18.336;2024-02-15T15:07:49;6.25;;;2.75;;